createdAt,value
2019-03-27T00:00:02.023Z,64.90
2019-03-27T00:02:33.573Z,65.00
2019-03-27T00:05:01.914Z,65.20
2019-03-27T00:07:31.166Z,65.10
2019-03-27T00:10:00.498Z,65.40
2019-03-27T00:12:29.647Z,66.30
2019-03-27T00:15:11.569Z,66.10
2019-03-27T00:17:28.061Z,65.80
2019-03-27T00:19:56.389Z,65.70
2019-03-27T00:22:24.613Z,65.90
2019-03-27T00:24:52.886Z,66.00
2019-03-27T00:27:21.033Z,66.20
2019-03-27T00:29:49.355Z,66.20
2019-03-27T00:32:17.693Z,66.10
2019-03-27T00:34:46.067Z,66.10
2019-03-27T00:37:14.312Z,66.20
2019-03-27T00:39:42.613Z,66.10
2019-03-27T00:42:10.856Z,66.10
2019-03-27T00:44:39.081Z,66.20
2019-03-27T00:47:07.360Z,66.30
2019-03-27T00:49:35.652Z,66.10
2019-03-27T00:52:04.149Z,66.30
2019-03-27T00:54:32.380Z,66.10
2019-03-27T00:57:00.797Z,66.60
2019-03-27T00:59:29.039Z,66.60
2019-03-27T01:01:57.330Z,66.60
2019-03-27T01:04:25.556Z,66.50
2019-03-27T01:06:53.853Z,66.90
2019-03-27T01:09:22.103Z,66.90
2019-03-27T01:11:50.521Z,66.80
2019-03-27T01:14:18.746Z,66.80
2019-03-27T01:16:47.017Z,66.90
2019-03-27T01:19:15.232Z,67.00
2019-03-27T01:21:43.627Z,67.00
2019-03-27T01:24:11.825Z,67.10
2019-03-27T01:26:40.138Z,66.90
2019-03-27T01:29:08.345Z,67.00
2019-03-27T01:31:36.672Z,68.40
2019-03-27T01:34:04.958Z,68.10
2019-03-27T01:36:33.279Z,67.60
2019-03-27T01:39:01.489Z,67.40
2019-03-27T01:41:31.315Z,67.20
2019-03-27T01:43:59.512Z,67.30
2019-03-27T01:46:27.710Z,67.20
2019-03-27T01:48:55.997Z,67.30
2019-03-27T01:51:24.203Z,67.70
2019-03-27T01:53:52.740Z,67.60
2019-03-27T01:56:20.954Z,67.70
2019-03-27T01:58:49.265Z,67.60
2019-03-27T02:01:17.517Z,67.80
2019-03-27T02:03:45.795Z,68.30
2019-03-27T02:06:14.034Z,69.00
2019-03-27T02:08:42.330Z,68.40
2019-03-27T02:11:10.546Z,68.40
2019-03-27T02:13:38.875Z,68.60
2019-03-27T02:16:07.580Z,69.00
2019-03-27T02:18:36.116Z,69.40
2019-03-27T02:21:04.432Z,69.10
2019-03-27T02:23:32.614Z,69.30
2019-03-27T02:26:00.814Z,69.40
2019-03-27T02:28:29.129Z,69.40
2019-03-27T02:30:57.349Z,69.50
2019-03-27T02:33:25.621Z,70.10
2019-03-27T02:35:53.860Z,70.40
2019-03-27T02:38:22.149Z,70.40
2019-03-27T02:40:50.361Z,70.40
2019-03-27T02:43:18.589Z,71.10
2019-03-27T02:45:46.901Z,71.30
2019-03-27T02:48:15.216Z,71.40
2019-03-27T02:50:43.517Z,71.40
2019-03-27T02:53:11.806Z,71.50
2019-03-27T02:55:40.094Z,71.90
2019-03-27T02:58:08.324Z,72.10
2019-03-27T03:00:36.614Z,72.30
2019-03-27T03:03:04.856Z,72.50
2019-03-27T03:05:33.122Z,72.60
2019-03-27T03:08:01.356Z,72.50
2019-03-27T03:10:29.551Z,73.10
2019-03-27T03:12:57.776Z,73.20
2019-03-27T03:15:26.154Z,73.00
2019-03-27T03:17:54.489Z,72.30
2019-03-27T03:20:22.844Z,72.60
2019-03-27T03:22:51.058Z,72.30
2019-03-27T03:25:19.294Z,72.20
2019-03-27T03:27:47.532Z,72.40
2019-03-27T03:30:16.010Z,72.90
2019-03-27T03:32:44.374Z,73.00
2019-03-27T03:35:12.927Z,72.90
2019-03-27T03:37:41.486Z,73.00
2019-03-27T03:40:11.028Z,73.60
2019-03-27T03:42:40.953Z,73.20
2019-03-27T03:45:10.967Z,72.90
2019-03-27T03:47:39.889Z,73.20
2019-03-27T03:50:14.897Z,73.50
2019-03-27T03:52:45.940Z,73.50
2019-03-27T03:55:14.714Z,73.10
2019-03-27T03:57:44.636Z,73.00
2019-03-27T04:00:13.568Z,72.90
2019-03-27T04:02:44.130Z,73.30
2019-03-27T04:05:17.078Z,73.00
2019-03-27T04:07:46.980Z,73.10
2019-03-27T04:10:15.189Z,73.10
2019-03-27T04:12:43.490Z,73.50
2019-03-27T04:15:11.900Z,73.40
2019-03-27T04:17:40.349Z,73.00
2019-03-27T04:20:08.666Z,73.60
2019-03-27T04:22:38.963Z,73.40
2019-03-27T04:25:07.549Z,73.10
2019-03-27T04:27:36.129Z,73.20
2019-03-27T04:30:05.665Z,73.30
2019-03-27T04:32:36.881Z,73.30
2019-03-27T04:35:05.334Z,73.60
2019-03-27T04:37:33.624Z,73.20
2019-03-27T04:40:01.866Z,73.10
2019-03-27T04:42:31.805Z,73.80
2019-03-27T04:45:00.190Z,73.60
2019-03-27T04:47:32.515Z,73.50
2019-03-27T04:49:58.906Z,74.10
2019-03-27T04:52:27.193Z,73.30
2019-03-27T04:54:55.511Z,73.20
2019-03-27T04:57:23.732Z,73.80
2019-03-27T04:59:52.121Z,73.30
2019-03-27T05:02:20.346Z,73.70
2019-03-27T05:04:48.898Z,73.50
2019-03-27T05:07:17.121Z,73.60
2019-03-27T05:09:45.433Z,74.80
2019-03-27T05:12:13.652Z,75.10
2019-03-27T05:14:41.824Z,75.70
2019-03-27T05:17:10.059Z,75.70
2019-03-27T05:19:38.363Z,76.30
2019-03-27T05:22:06.702Z,76.70
2019-03-27T05:24:34.989Z,77.10
2019-03-27T05:27:04.305Z,78.40
2019-03-27T05:29:33.652Z,78.90
2019-03-27T05:32:01.891Z,79.00
2019-03-27T05:34:30.315Z,79.40
2019-03-27T05:36:58.544Z,79.60
2019-03-27T05:39:26.950Z,79.60
2019-03-27T05:41:55.167Z,80.30
2019-03-27T05:44:23.377Z,80.30
2019-03-27T05:46:51.693Z,81.20
2019-03-27T05:49:19.944Z,81.00
2019-03-27T05:51:48.187Z,81.10
2019-03-27T05:54:16.499Z,81.50
2019-03-27T05:56:44.789Z,81.80
2019-03-27T05:59:13.009Z,82.40
2019-03-27T06:01:41.346Z,82.30
2019-03-27T06:04:09.594Z,81.80
2019-03-27T06:06:37.799Z,81.90
2019-03-27T06:09:06.512Z,81.90
2019-03-27T06:11:34.787Z,81.30
2019-03-27T06:14:03.059Z,81.50
2019-03-27T06:16:31.410Z,81.60
2019-03-27T06:18:59.622Z,81.30
2019-03-27T06:21:27.929Z,81.40
2019-03-27T06:23:56.171Z,81.50
2019-03-27T06:26:24.493Z,81.20
2019-03-27T06:28:52.703Z,81.10
2019-03-27T06:31:21.010Z,81.00
2019-03-27T06:33:49.225Z,81.30
2019-03-27T06:36:17.560Z,81.40
2019-03-27T06:39:05.281Z,81.60
2019-03-27T06:41:33.626Z,81.80
2019-03-27T06:44:01.763Z,81.80
2019-03-27T06:46:30.098Z,82.40
2019-03-27T06:49:17.591Z,81.90
2019-03-27T06:51:45.874Z,81.90
2019-03-27T06:54:14.257Z,82.90
2019-03-27T06:56:42.487Z,83.50
2019-03-27T06:59:10.783Z,83.80
2019-03-27T07:01:39.054Z,84.60
2019-03-27T07:04:10.667Z,84.30
2019-03-27T07:06:37.466Z,84.80
2019-03-27T07:09:07.867Z,85.00
2019-03-27T07:11:36.101Z,85.50
2019-03-27T07:14:04.531Z,86.40
2019-03-27T07:16:32.759Z,86.20
2019-03-27T07:19:01.067Z,86.80
2019-03-27T07:21:29.330Z,87.40
2019-03-27T07:23:57.610Z,86.60
2019-03-27T07:26:25.858Z,86.80
2019-03-27T07:28:54.126Z,86.60
2019-03-27T07:31:22.379Z,85.90
2019-03-27T07:34:09.880Z,86.60
2019-03-27T07:36:37.990Z,86.10
2019-03-27T07:39:11.135Z,85.70
2019-03-27T07:41:36.644Z,85.70
2019-03-27T07:44:04.883Z,84.90
2019-03-27T07:46:33.207Z,84.90
2019-03-27T07:49:01.342Z,85.10
2019-03-27T07:51:29.579Z,84.80
2019-03-27T07:53:57.886Z,84.50
2019-03-27T07:56:26.170Z,85.10
2019-03-27T07:58:54.502Z,84.30
2019-03-27T08:01:22.840Z,84.30
2019-03-27T08:03:51.071Z,84.10
2019-03-27T08:06:19.403Z,84.40
2019-03-27T08:08:47.626Z,83.80
2019-03-27T08:11:15.957Z,84.10
2019-03-27T08:13:44.256Z,84.70
2019-03-27T08:16:12.578Z,84.60
2019-03-27T08:18:40.843Z,85.30
2019-03-27T08:21:09.144Z,85.40
2019-03-27T08:23:37.500Z,84.90
2019-03-27T08:26:05.813Z,84.90
2019-03-27T08:28:34.041Z,85.00
2019-03-27T08:31:02.345Z,85.00
2019-03-27T08:33:30.589Z,84.00
2019-03-27T08:35:58.926Z,84.40
2019-03-27T08:38:27.146Z,84.90
2019-03-27T08:40:55.467Z,83.40
2019-03-27T08:43:25.576Z,82.80
2019-03-27T08:45:53.801Z,82.80
2019-03-27T08:48:22.030Z,82.40
2019-03-27T08:50:50.252Z,84.40
2019-03-27T08:53:18.735Z,84.10
2019-03-27T08:55:47.045Z,82.70
2019-03-27T08:58:15.386Z,82.70
2019-03-27T09:00:51.347Z,84.00
2019-03-27T09:03:20.328Z,81.60
2019-03-27T09:05:48.777Z,80.30
2019-03-27T09:08:17.074Z,80.00
2019-03-27T09:10:45.621Z,79.30
2019-03-27T09:13:32.704Z,79.00
2019-03-27T09:16:11.775Z,80.70
2019-03-27T09:18:40.061Z,82.20
2019-03-27T09:21:08.402Z,78.20
2019-03-27T09:23:36.794Z,77.70
2019-03-27T09:26:05.005Z,78.10
2019-03-27T09:28:36.135Z,75.90
2019-03-27T09:31:04.406Z,78.20
2019-03-27T09:33:32.804Z,77.20
2019-03-27T09:36:01.439Z,76.90
2019-03-27T09:38:30.296Z,75.20
2019-03-27T09:40:58.543Z,75.50
2019-03-27T09:43:28.834Z,76.40
2019-03-27T09:45:56.849Z,73.80
2019-03-27T09:48:25.274Z,72.50
2019-03-27T09:50:53.588Z,72.50
2019-03-27T09:53:22.057Z,73.50
2019-03-27T09:55:50.281Z,72.60
2019-03-27T09:58:18.634Z,72.70
2019-03-27T10:01:01.060Z,72.50
2019-03-27T10:03:29.974Z,73.00
2019-03-27T10:05:58.273Z,73.00
2019-03-27T10:08:29.137Z,71.80
2019-03-27T10:10:57.673Z,73.40
2019-03-27T10:13:27.158Z,74.30
2019-03-27T10:15:55.471Z,73.10
2019-03-27T10:18:23.793Z,76.10
2019-03-27T10:20:52.190Z,74.90
2019-03-27T10:23:20.512Z,74.90
2019-03-27T10:25:50.732Z,70.70
2019-03-27T10:28:19.075Z,69.40
2019-03-27T10:30:50.666Z,70.60
2019-03-27T10:33:19.052Z,70.10
2019-03-27T10:35:47.381Z,72.70
2019-03-27T10:38:20.853Z,70.80
2019-03-27T10:40:52.310Z,69.90
2019-03-27T10:43:22.990Z,66.90
2019-03-27T10:45:59.356Z,64.90
2019-03-27T10:48:30.363Z,66.60
2019-03-27T10:50:58.847Z,63.50
2019-03-27T10:53:27.473Z,64.30
2019-03-27T10:55:55.737Z,64.40
2019-03-27T10:58:24.005Z,64.70
2019-03-27T11:00:52.293Z,64.90
2019-03-27T11:03:23.490Z,67.00
2019-03-27T11:05:54.812Z,66.00
2019-03-27T11:08:22.942Z,67.40
2019-03-27T11:10:51.491Z,67.50
2019-03-27T11:13:22.168Z,66.50
2019-03-27T11:15:50.681Z,65.70
2019-03-27T11:18:19.039Z,66.30
2019-03-27T11:20:47.261Z,67.10
2019-03-27T11:23:15.518Z,66.10
2019-03-27T11:25:43.906Z,66.90
2019-03-27T11:28:12.191Z,66.30
2019-03-27T11:30:41.141Z,66.70
2019-03-27T11:33:09.885Z,67.80
2019-03-27T11:35:41.301Z,65.10
2019-03-27T11:38:09.780Z,65.60
2019-03-27T11:40:38.046Z,64.80
2019-03-27T11:43:06.341Z,65.20
2019-03-27T11:45:34.894Z,64.00
2019-03-27T11:48:04.054Z,63.10
2019-03-27T11:50:44.237Z,62.30
2019-03-27T11:53:03.248Z,62.20
2019-03-27T11:55:31.564Z,60.90
2019-03-27T11:57:59.908Z,62.80
2019-03-27T12:00:31.900Z,63.10
2019-03-27T12:03:00.199Z,65.00
2019-03-27T12:05:28.933Z,65.50
2019-03-27T12:08:00.227Z,65.90
2019-03-27T12:10:30.997Z,64.70
2019-03-27T12:12:59.288Z,66.20
2019-03-27T12:15:40.959Z,65.70
2019-03-27T12:18:17.117Z,66.60
2019-03-27T12:20:58.317Z,66.30
2019-03-27T12:23:20.089Z,65.70
2019-03-27T12:25:48.308Z,68.80
2019-03-27T12:28:16.621Z,66.90
2019-03-27T12:30:47.187Z,65.30
2019-03-27T12:33:15.758Z,63.60
2019-03-27T12:35:43.978Z,65.20
2019-03-27T12:38:14.198Z,65.40
2019-03-27T12:40:42.425Z,64.20
2019-03-27T12:43:10.777Z,63.40
2019-03-27T12:45:41.478Z,62.30
2019-03-27T12:48:12.575Z,62.30
2019-03-27T12:50:44.505Z,63.80
2019-03-27T12:53:14.196Z,62.50
2019-03-27T12:55:42.568Z,62.40
2019-03-27T12:58:11.875Z,60.50
2019-03-27T13:00:40.462Z,61.30
2019-03-27T13:03:09.987Z,59.30
2019-03-27T13:05:38.526Z,59.50
2019-03-27T13:08:13.898Z,59.50
2019-03-27T13:10:39.758Z,60.10
2019-03-27T13:13:07.994Z,59.90
2019-03-27T13:15:41.010Z,57.70
2019-03-27T13:18:12.619Z,58.60
2019-03-27T13:20:40.921Z,59.70
2019-03-27T13:23:11.662Z,59.10
2019-03-27T13:25:42.980Z,59.40
2019-03-27T13:28:16.658Z,58.40
2019-03-27T13:30:45.022Z,59.80
2019-03-27T13:33:13.257Z,59.50
2019-03-27T13:35:41.593Z,57.80
2019-03-27T13:38:09.834Z,57.40
2019-03-27T13:40:38.104Z,57.30
2019-03-27T13:43:07.838Z,59.10
2019-03-27T13:45:36.062Z,58.10
2019-03-27T13:48:04.747Z,58.70
2019-03-27T13:50:33.191Z,58.60
2019-03-27T13:53:01.470Z,58.10
2019-03-27T13:55:30.062Z,59.80
2019-03-27T13:58:01.525Z,59.70
2019-03-27T14:00:37.117Z,58.10
2019-03-27T14:03:10.054Z,56.50
2019-03-27T14:05:38.422Z,57.90
2019-03-27T14:08:06.896Z,58.10
2019-03-27T14:10:35.410Z,57.20
2019-03-27T14:13:03.930Z,55.80
2019-03-27T14:15:32.386Z,56.20
2019-03-27T14:18:04.229Z,56.60
2019-03-27T14:20:35.302Z,56.40
2019-03-27T14:23:06.818Z,56.00
2019-03-27T14:25:35.146Z,56.30
2019-03-27T14:28:05.618Z,58.10
2019-03-27T14:30:51.160Z,55.80
2019-03-27T14:33:21.253Z,57.70
2019-03-27T14:35:49.606Z,56.90
2019-03-27T14:38:18.413Z,55.80
2019-03-27T14:40:46.824Z,53.30
2019-03-27T14:43:15.465Z,55.30
2019-03-27T14:45:43.754Z,53.90
2019-03-27T14:48:12.135Z,52.30
2019-03-27T14:50:40.490Z,51.10
2019-03-27T14:53:08.817Z,52.80
2019-03-27T14:55:37.354Z,52.10
2019-03-27T14:58:05.641Z,51.40
2019-03-27T15:00:34.029Z,52.20
2019-03-27T15:03:02.366Z,52.60
2019-03-27T15:05:30.648Z,52.50
2019-03-27T15:07:59.027Z,51.10
2019-03-27T15:10:27.404Z,50.70
2019-03-27T15:12:55.742Z,50.80
2019-03-27T15:15:24.185Z,51.60
2019-03-27T15:17:52.413Z,50.60
2019-03-27T15:20:20.751Z,50.70
2019-03-27T15:22:49.027Z,51.80
2019-03-27T15:25:17.493Z,52.80
2019-03-27T15:27:45.815Z,53.30
2019-03-27T15:30:14.698Z,53.90
2019-03-27T15:32:43.221Z,53.50
2019-03-27T15:35:11.768Z,53.30
2019-03-27T15:37:40.334Z,53.40
2019-03-27T15:40:09.130Z,53.40
2019-03-27T15:42:39.783Z,53.20
2019-03-27T15:45:09.176Z,53.40
2019-03-27T15:47:38.057Z,53.20
2019-03-27T15:50:06.545Z,52.30
2019-03-27T15:52:36.924Z,54.30
2019-03-27T15:55:08.577Z,53.70
2019-03-27T15:57:37.150Z,53.90
2019-03-27T16:00:06.470Z,54.60
2019-03-27T16:02:35.384Z,52.80
2019-03-27T16:05:04.016Z,51.20
2019-03-27T16:07:32.597Z,50.70
2019-03-27T16:10:00.856Z,52.40
2019-03-27T16:12:30.784Z,52.00
2019-03-27T16:14:59.068Z,51.90
2019-03-27T16:17:27.483Z,51.60
2019-03-27T16:19:55.714Z,51.50
2019-03-27T16:22:24.194Z,50.90
2019-03-27T16:24:52.636Z,51.10
2019-03-27T16:29:49.023Z,49.60
2019-03-27T16:32:17.380Z,50.70
2019-03-27T16:34:45.637Z,51.60
2019-03-27T16:37:13.968Z,52.00
2019-03-27T16:39:42.226Z,51.60
2019-03-27T16:42:10.579Z,51.90
2019-03-27T16:44:38.866Z,53.10
2019-03-27T16:47:07.199Z,53.70
2019-03-27T16:49:35.502Z,52.50
2019-03-27T16:52:04.103Z,52.90
2019-03-27T16:54:32.539Z,53.20
2019-03-27T16:57:00.817Z,53.10
2019-03-27T16:59:29.157Z,52.60
2019-03-27T17:01:59.259Z,52.60
2019-03-27T17:04:27.673Z,52.70
2019-03-27T17:06:55.933Z,52.00
2019-03-27T17:09:24.272Z,52.40
2019-03-27T17:11:52.463Z,53.30
2019-03-27T17:14:20.831Z,54.00
2019-03-27T17:16:49.141Z,54.30
2019-03-27T17:19:17.698Z,55.00
2019-03-27T17:21:45.939Z,54.80
2019-03-27T17:24:14.364Z,55.00
2019-03-27T17:26:42.606Z,56.00
2019-03-27T17:29:10.958Z,55.40
2019-03-27T17:31:39.102Z,55.40
2019-03-27T17:34:07.418Z,55.40
2019-03-27T17:36:35.823Z,55.60
2019-03-27T17:39:07.026Z,55.50
2019-03-27T17:41:35.612Z,56.00
2019-03-27T17:44:04.174Z,56.30
2019-03-27T17:46:32.629Z,56.40
2019-03-27T17:49:00.949Z,57.20
2019-03-27T17:51:29.151Z,57.50
2019-03-27T17:53:57.626Z,57.00
2019-03-27T17:56:26.527Z,57.60
2019-03-27T17:58:54.808Z,57.50
2019-03-27T18:01:23.264Z,57.50
2019-03-27T18:03:51.530Z,57.30
2019-03-27T18:06:19.895Z,57.60
2019-03-27T18:08:48.200Z,57.40
2019-03-27T18:11:16.549Z,57.50
2019-03-27T18:13:45.011Z,57.50
2019-03-27T18:16:16.756Z,57.70
2019-03-27T18:18:43.747Z,58.00
2019-03-27T18:21:12.300Z,57.70
2019-03-27T18:23:46.378Z,57.40
2019-03-27T18:26:11.158Z,57.90
2019-03-27T18:28:39.514Z,58.00
2019-03-27T18:31:08.019Z,58.60
2019-03-27T18:33:36.540Z,58.70
2019-03-27T18:36:04.899Z,58.50
2019-03-27T18:38:33.270Z,58.80
2019-03-27T18:41:01.670Z,58.80
2019-03-27T18:43:29.934Z,59.00
2019-03-27T18:45:58.329Z,58.10
2019-03-27T18:48:26.674Z,58.90
2019-03-27T18:50:54.949Z,58.30
2019-03-27T18:53:23.475Z,58.20
2019-03-27T18:55:51.988Z,58.20
2019-03-27T18:58:20.384Z,57.80
2019-03-27T19:00:48.814Z,58.00
2019-03-27T19:03:17.333Z,57.90
2019-03-27T19:05:45.651Z,57.90
2019-03-27T19:08:13.968Z,58.00
2019-03-27T19:10:42.339Z,57.90
2019-03-27T19:13:10.777Z,57.90
2019-03-27T19:15:39.060Z,58.10
2019-03-27T19:18:07.470Z,58.20
2019-03-27T19:20:35.838Z,58.40
2019-03-27T19:23:04.210Z,58.40
2019-03-27T19:25:32.659Z,58.50
2019-03-27T19:28:01.381Z,58.90
2019-03-27T19:30:29.773Z,58.60
2019-03-27T19:32:58.265Z,58.90
2019-03-27T19:35:26.872Z,59.10
2019-03-27T19:37:55.279Z,59.20
2019-03-27T19:40:23.896Z,60.50
2019-03-27T19:42:52.416Z,60.80
2019-03-27T19:45:20.892Z,61.50
2019-03-27T19:47:49.276Z,61.30
2019-03-27T19:50:17.659Z,61.70
2019-03-27T19:52:45.922Z,61.70
2019-03-27T19:55:14.350Z,61.90
2019-03-27T19:57:42.569Z,61.80
2019-03-27T20:00:11.762Z,61.70
2019-03-27T20:02:40.760Z,62.20
2019-03-27T20:05:09.303Z,61.90
2019-03-27T20:07:37.735Z,62.30
2019-03-27T20:10:06.470Z,61.80
2019-03-27T20:12:36.187Z,61.60
2019-03-27T20:15:11.711Z,61.50
2019-03-27T20:17:36.116Z,62.40
2019-03-27T20:20:07.351Z,61.70
2019-03-27T20:22:36.263Z,61.60
2019-03-27T20:25:05.682Z,61.40
2019-03-27T20:27:35.174Z,61.30
2019-03-27T20:30:04.849Z,61.20
2019-03-27T20:32:34.839Z,60.40
2019-03-27T20:35:03.463Z,60.00
2019-03-27T20:37:32.766Z,59.80
2019-03-27T20:40:05.516Z,59.70
2019-03-27T20:42:34.831Z,59.60
2019-03-27T20:45:03.523Z,59.40
2019-03-27T20:47:33.313Z,59.50
2019-03-27T20:50:01.646Z,59.10
2019-03-27T20:52:31.620Z,59.20
2019-03-27T20:55:00.317Z,59.10
2019-03-27T20:57:30.203Z,58.90
2019-03-27T20:59:58.480Z,58.90
2019-03-27T21:02:26.978Z,58.60
2019-03-27T21:04:55.268Z,58.80
2019-03-27T21:07:24.690Z,58.80
2019-03-27T21:09:53.399Z,58.70
2019-03-27T21:12:21.941Z,58.90
2019-03-27T21:14:50.209Z,59.10
2019-03-27T21:17:18.570Z,58.90
2019-03-27T21:19:46.854Z,58.80
2019-03-27T21:22:15.165Z,59.00
2019-03-27T21:24:43.434Z,58.90
2019-03-27T21:27:11.747Z,58.90
2019-03-27T21:29:40.075Z,59.80
2019-03-27T21:32:08.215Z,60.40
2019-03-27T21:34:36.601Z,60.50
2019-03-27T21:37:04.970Z,60.40
2019-03-27T21:39:33.336Z,60.50
2019-03-27T21:42:01.572Z,60.60
2019-03-27T21:44:29.934Z,60.70
2019-03-27T21:46:58.304Z,60.70
2019-03-27T21:49:26.662Z,60.70
2019-03-27T21:51:54.922Z,60.90
2019-03-27T21:54:23.321Z,60.80
2019-03-27T21:56:51.598Z,60.80
2019-03-27T21:59:19.980Z,60.90
2019-03-27T22:01:48.277Z,61.20
2019-03-27T22:04:16.767Z,61.50
2019-03-27T22:06:44.951Z,61.50
2019-03-27T22:09:13.284Z,61.50
2019-03-27T22:11:41.574Z,61.70
2019-03-27T22:14:10.000Z,61.90
2019-03-27T22:16:38.370Z,62.10
2019-03-27T22:19:06.776Z,61.80
2019-03-27T22:21:35.006Z,62.00
2019-03-27T22:24:03.253Z,62.10
2019-03-27T22:26:31.578Z,62.50
2019-03-27T22:28:59.887Z,62.50
2019-03-27T22:31:28.734Z,62.60
2019-03-27T22:33:57.071Z,62.70
2019-03-27T22:36:25.369Z,63.80
2019-03-27T22:38:53.508Z,63.00
2019-03-27T22:41:21.832Z,64.00
2019-03-27T22:43:52.904Z,63.30
2019-03-27T22:46:21.292Z,63.30
2019-03-27T22:48:49.547Z,63.50
2019-03-27T22:51:17.817Z,63.50
2019-03-27T22:53:46.068Z,63.50
2019-03-27T22:56:14.490Z,64.50
2019-03-27T22:58:42.801Z,63.80
2019-03-27T23:01:11.179Z,64.00
2019-03-27T23:03:40.038Z,64.30
2019-03-27T23:06:08.351Z,64.80
2019-03-27T23:08:36.716Z,64.90
2019-03-27T23:11:05.047Z,65.20
2019-03-27T23:13:33.393Z,65.20
2019-03-27T23:16:01.726Z,65.80
2019-03-27T23:18:30.199Z,66.30
2019-03-27T23:20:58.403Z,66.50
2019-03-27T23:23:26.637Z,67.20
2019-03-27T23:26:02.928Z,67.10
2019-03-27T23:28:25.089Z,67.70
2019-03-27T23:30:53.342Z,67.60
2019-03-27T23:33:22.698Z,67.20
2019-03-27T23:35:50.920Z,66.90
2019-03-27T23:38:19.361Z,66.90
2019-03-27T23:40:47.607Z,67.60
2019-03-27T23:43:15.886Z,67.50
2019-03-27T23:45:44.140Z,67.70
2019-03-27T23:48:12.449Z,68.50
2019-03-27T23:50:40.689Z,68.40
2019-03-27T23:53:09.083Z,69.10
2019-03-27T23:55:37.269Z,69.20
2019-03-27T23:58:05.563Z,70.10
